sensor_id;sensor_type;location;lat;lon;timestamp;temperature;humidity
45849;DHT22;31567;54.600;9.842;2023-04-29T00:01:49;10.60;99.90
45849;DHT22;31567;54.600;9.842;2023-04-29T00:05:28;10.60;99.90
45849;DHT22;31567;54.600;9.842;2023-04-29T00:09:08;10.50;99.90
45849;DHT22;31567;54.600;9.842;2023-04-29T00:12:48;10.50;99.90
45849;DHT22;31567;54.600;9.842;2023-04-29T00:16:29;10.50;99.90
45849;DHT22;31567;54.600;9.842;2023-04-29T00:20:09;10.50;99.90
45849;DHT22;31567;54.600;9.842;2023-04-29T00:23:50;10.50;99.80
45849;DHT22;31567;54.600;9.842;2023-04-29T00:27:30;10.40;99.80
45849;DHT22;31567;54.600;9.842;2023-04-29T00:31:09;10.40;99.80
45849;DHT22;31567;54.600;9.842;2023-04-29T00:34:49;10.40;99.70
45849;DHT22;31567;54.600;9.842;2023-04-29T00:38:29;10.30;99.70
45849;DHT22;31567;54.600;9.842;2023-04-29T00:42:09;10.20;99.90
45849;DHT22;31567;54.600;9.842;2023-04-29T00:45:49;10.20;99.90
45849;DHT22;31567;54.600;9.842;2023-04-29T00:49:29;10.20;99.90
45849;DHT22;31567;54.600;9.842;2023-04-29T00:53:10;10.20;99.90
45849;DHT22;31567;54.600;9.842;2023-04-29T00:56:53;10.10;99.90
45849;DHT22;31567;54.600;9.842;2023-04-29T01:00:34;10.20;99.90
45849;DHT22;31567;54.600;9.842;2023-04-29T01:04:14;10.10;99.90
45849;DHT22;31567;54.600;9.842;2023-04-29T01:08:28;10.10;99.90
45849;DHT22;31567;54.600;9.842;2023-04-29T01:16:28;9.90;99.90
45849;DHT22;31567;54.600;9.842;2023-04-29T01:20:09;10.00;99.90
45849;DHT22;31567;54.600;9.842;2023-04-29T01:23:49;9.90;99.90
45849;DHT22;31567;54.600;9.842;2023-04-29T01:27:55;9.90;99.90
45849;DHT22;31567;54.600;9.842;2023-04-29T01:31:40;9.90;99.90
45849;DHT22;31567;54.600;9.842;2023-04-29T01:35:49;9.80;99.90
45849;DHT22;31567;54.600;9.842;2023-04-29T01:39:44;9.80;99.90
45849;DHT22;31567;54.600;9.842;2023-04-29T01:43:28;9.70;99.80
45849;DHT22;31567;54.600;9.842;2023-04-29T01:47:12;9.70;99.80
45849;DHT22;31567;54.600;9.842;2023-04-29T01:50:52;9.70;99.90
45849;DHT22;31567;54.600;9.842;2023-04-29T01:54:32;9.60;99.90
45849;DHT22;31567;54.600;9.842;2023-04-29T01:58:15;9.60;99.90
45849;DHT22;31567;54.600;9.842;2023-04-29T02:01:55;9.60;99.80
45849;DHT22;31567;54.600;9.842;2023-04-29T02:05:36;9.70;99.80
45849;DHT22;31567;54.600;9.842;2023-04-29T02:09:16;9.60;99.70
45849;DHT22;31567;54.600;9.842;2023-04-29T02:12:56;9.60;99.70
45849;DHT22;31567;54.600;9.842;2023-04-29T02:16:35;9.50;99.70
45849;DHT22;31567;54.600;9.842;2023-04-29T02:20:15;9.40;99.90
45849;DHT22;31567;54.600;9.842;2023-04-29T02:23:54;9.20;99.90
45849;DHT22;31567;54.600;9.842;2023-04-29T02:27:34;9.20;99.90
45849;DHT22;31567;54.600;9.842;2023-04-29T02:31:14;9.00;99.90
45849;DHT22;31567;54.600;9.842;2023-04-29T02:34:53;9.00;99.90
45849;DHT22;31567;54.600;9.842;2023-04-29T02:38:33;8.90;99.90
45849;DHT22;31567;54.600;9.842;2023-04-29T02:42:12;8.80;99.90
45849;DHT22;31567;54.600;9.842;2023-04-29T02:45:52;8.90;99.90
45849;DHT22;31567;54.600;9.842;2023-04-29T02:49:32;8.80;99.90
45849;DHT22;31567;54.600;9.842;2023-04-29T02:53:11;8.80;99.90
45849;DHT22;31567;54.600;9.842;2023-04-29T02:56:51;8.90;99.90
45849;DHT22;31567;54.600;9.842;2023-04-29T03:00:30;8.80;99.90
45849;DHT22;31567;54.600;9.842;2023-04-29T03:04:10;8.80;99.90
45849;DHT22;31567;54.600;9.842;2023-04-29T03:07:49;8.80;99.90
45849;DHT22;31567;54.600;9.842;2023-04-29T03:11:29;8.80;99.90
45849;DHT22;31567;54.600;9.842;2023-04-29T03:15:09;8.70;99.90
45849;DHT22;31567;54.600;9.842;2023-04-29T03:18:49;8.70;99.90
45849;DHT22;31567;54.600;9.842;2023-04-29T03:22:28;8.80;99.90
45849;DHT22;31567;54.600;9.842;2023-04-29T03:26:08;8.80;99.90
45849;DHT22;31567;54.600;9.842;2023-04-29T03:29:47;8.90;99.90
45849;DHT22;31567;54.600;9.842;2023-04-29T03:33:27;8.90;99.90
45849;DHT22;31567;54.600;9.842;2023-04-29T03:37:07;8.90;99.90
45849;DHT22;31567;54.600;9.842;2023-04-29T03:40:47;8.90;99.90
45849;DHT22;31567;54.600;9.842;2023-04-29T03:44:26;8.90;99.90
45849;DHT22;31567;54.600;9.842;2023-04-29T03:48:07;9.00;99.90
45849;DHT22;31567;54.600;9.842;2023-04-29T03:51:47;9.00;99.90
45849;DHT22;31567;54.600;9.842;2023-04-29T03:55:27;9.10;99.90
45849;DHT22;31567;54.600;9.842;2023-04-29T03:59:06;9.10;99.90
45849;DHT22;31567;54.600;9.842;2023-04-29T04:02:46;9.20;99.90
45849;DHT22;31567;54.600;9.842;2023-04-29T04:06:25;9.20;99.90
45849;DHT22;31567;54.600;9.842;2023-04-29T04:10:05;9.20;99.90
45849;DHT22;31567;54.600;9.842;2023-04-29T04:13:45;9.30;99.90
45849;DHT22;31567;54.600;9.842;2023-04-29T04:17:24;9.40;99.90
45849;DHT22;31567;54.600;9.842;2023-04-29T04:21:13;9.40;99.90
45849;DHT22;31567;54.600;9.842;2023-04-29T04:24:56;9.40;99.90
45849;DHT22;31567;54.600;9.842;2023-04-29T04:28:35;9.40;99.90
45849;DHT22;31567;54.600;9.842;2023-04-29T04:32:15;9.40;99.90
45849;DHT22;31567;54.600;9.842;2023-04-29T04:35:54;9.40;99.90
45849;DHT22;31567;54.600;9.842;2023-04-29T04:39:34;9.40;99.90
45849;DHT22;31567;54.600;9.842;2023-04-29T04:43:14;9.40;99.90
45849;DHT22;31567;54.600;9.842;2023-04-29T04:46:53;9.50;99.90
45849;DHT22;31567;54.600;9.842;2023-04-29T04:50:33;9.50;99.90
45849;DHT22;31567;54.600;9.842;2023-04-29T04:54:12;9.50;99.90
45849;DHT22;31567;54.600;9.842;2023-04-29T04:57:52;9.50;99.90
45849;DHT22;31567;54.600;9.842;2023-04-29T05:01:31;9.60;99.90
45849;DHT22;31567;54.600;9.842;2023-04-29T05:05:11;9.60;99.90
45849;DHT22;31567;54.600;9.842;2023-04-29T05:08:51;9.60;99.90
45849;DHT22;31567;54.600;9.842;2023-04-29T05:12:30;9.70;99.90
45849;DHT22;31567;54.600;9.842;2023-04-29T05:16:10;9.70;99.90
45849;DHT22;31567;54.600;9.842;2023-04-29T05:19:50;9.70;99.90
45849;DHT22;31567;54.600;9.842;2023-04-29T05:23:29;9.80;99.90
45849;DHT22;31567;54.600;9.842;2023-04-29T05:27:09;9.80;99.90
45849;DHT22;31567;54.600;9.842;2023-04-29T05:30:52;9.80;99.90
45849;DHT22;31567;54.600;9.842;2023-04-29T05:34:32;9.90;99.90
45849;DHT22;31567;54.600;9.842;2023-04-29T05:38:12;9.90;99.90
45849;DHT22;31567;54.600;9.842;2023-04-29T05:41:51;9.90;99.90
45849;DHT22;31567;54.600;9.842;2023-04-29T05:45:31;9.90;99.90
45849;DHT22;31567;54.600;9.842;2023-04-29T05:49:10;10.00;99.90
45849;DHT22;31567;54.600;9.842;2023-04-29T05:52:50;10.00;99.90
45849;DHT22;31567;54.600;9.842;2023-04-29T05:56:30;10.10;99.90
45849;DHT22;31567;54.600;9.842;2023-04-29T06:00:10;10.10;99.90
45849;DHT22;31567;54.600;9.842;2023-04-29T06:03:49;10.20;99.90
45849;DHT22;31567;54.600;9.842;2023-04-29T06:07:29;10.20;99.90
45849;DHT22;31567;54.600;9.842;2023-04-29T06:11:09;10.30;99.90
45849;DHT22;31567;54.600;9.842;2023-04-29T06:14:48;10.40;99.90
45849;DHT22;31567;54.600;9.842;2023-04-29T06:18:28;10.40;99.90
45849;DHT22;31567;54.600;9.842;2023-04-29T06:22:08;10.50;99.90
45849;DHT22;31567;54.600;9.842;2023-04-29T06:25:48;10.50;99.90
45849;DHT22;31567;54.600;9.842;2023-04-29T06:29:27;10.60;99.90
45849;DHT22;31567;54.600;9.842;2023-04-29T06:33:07;10.60;99.90
45849;DHT22;31567;54.600;9.842;2023-04-29T06:36:47;10.50;99.90
45849;DHT22;31567;54.600;9.842;2023-04-29T06:40:27;10.60;99.90
45849;DHT22;31567;54.600;9.842;2023-04-29T06:44:06;10.70;99.90
45849;DHT22;31567;54.600;9.842;2023-04-29T06:47:46;10.70;99.90
45849;DHT22;31567;54.600;9.842;2023-04-29T06:51:25;10.80;99.90
45849;DHT22;31567;54.600;9.842;2023-04-29T06:55:06;10.80;99.70
45849;DHT22;31567;54.600;9.842;2023-04-29T06:58:46;10.80;98.90
45849;DHT22;31567;54.600;9.842;2023-04-29T07:02:26;10.80;98.30
45849;DHT22;31567;54.600;9.842;2023-04-29T07:06:05;10.70;98.10
45849;DHT22;31567;54.600;9.842;2023-04-29T07:09:45;10.80;98.10
45849;DHT22;31567;54.600;9.842;2023-04-29T07:13:25;10.90;98.10
45849;DHT22;31567;54.600;9.842;2023-04-29T07:17:04;11.00;98.00
45849;DHT22;31567;54.600;9.842;2023-04-29T07:20:44;11.10;97.50
45849;DHT22;31567;54.600;9.842;2023-04-29T07:24:24;11.10;97.00
45849;DHT22;31567;54.600;9.842;2023-04-29T07:28:04;11.20;97.50
45849;DHT22;31567;54.600;9.842;2023-04-29T07:31:44;11.30;97.30
45849;DHT22;31567;54.600;9.842;2023-04-29T07:35:24;11.40;97.40
45849;DHT22;31567;54.600;9.842;2023-04-29T07:39:03;11.50;96.90
45849;DHT22;31567;54.600;9.842;2023-04-29T07:42:43;11.60;96.30
45849;DHT22;31567;54.600;9.842;2023-04-29T07:46:23;11.60;96.20
45849;DHT22;31567;54.600;9.842;2023-04-29T07:50:02;11.70;96.40
45849;DHT22;31567;54.600;9.842;2023-04-29T07:53:43;11.80;96.30
45849;DHT22;31567;54.600;9.842;2023-04-29T07:57:23;11.90;96.30
45849;DHT22;31567;54.600;9.842;2023-04-29T08:01:09;12.00;96.50
45849;DHT22;31567;54.600;9.842;2023-04-29T08:04:50;12.10;96.10
45849;DHT22;31567;54.600;9.842;2023-04-29T08:08:30;12.20;96.00
45849;DHT22;31567;54.600;9.842;2023-04-29T08:12:09;12.20;95.60
45849;DHT22;31567;54.600;9.842;2023-04-29T08:15:49;12.30;96.10
45849;DHT22;31567;54.600;9.842;2023-04-29T08:19:28;12.40;95.30
45849;DHT22;31567;54.600;9.842;2023-04-29T08:23:09;12.70;95.40
45849;DHT22;31567;54.600;9.842;2023-04-29T08:26:49;12.80;93.90
45849;DHT22;31567;54.600;9.842;2023-04-29T08:30:29;12.80;93.40
45849;DHT22;31567;54.600;9.842;2023-04-29T08:34:08;12.90;93.30
45849;DHT22;31567;54.600;9.842;2023-04-29T08:37:48;13.20;94.30
45849;DHT22;31567;54.600;9.842;2023-04-29T08:41:28;13.30;93.30
45849;DHT22;31567;54.600;9.842;2023-04-29T08:45:09;13.30;93.50
45849;DHT22;31567;54.600;9.842;2023-04-29T08:48:50;13.50;93.10
45849;DHT22;31567;54.600;9.842;2023-04-29T08:52:31;13.60;93.40
45849;DHT22;31567;54.600;9.842;2023-04-29T08:56:17;13.70;92.10
45849;DHT22;31567;54.600;9.842;2023-04-29T09:00:01;13.70;91.10
45849;DHT22;31567;54.600;9.842;2023-04-29T09:03:55;13.90;91.50
45849;DHT22;31567;54.600;9.842;2023-04-29T09:07:40;14.00;91.70
45849;DHT22;31567;54.600;9.842;2023-04-29T09:11:20;14.20;91.20
45849;DHT22;31567;54.600;9.842;2023-04-29T09:15:00;14.30;91.00
45849;DHT22;31567;54.600;9.842;2023-04-29T09:18:47;14.30;91.00
45849;DHT22;31567;54.600;9.842;2023-04-29T09:22:59;14.50;90.50
45849;DHT22;31567;54.600;9.842;2023-04-29T09:26:42;14.50;90.90
45849;DHT22;31567;54.600;9.842;2023-04-29T09:30:23;14.60;88.60
45849;DHT22;31567;54.600;9.842;2023-04-29T09:34:02;14.80;89.50
45849;DHT22;31567;54.600;9.842;2023-04-29T09:37:42;14.90;88.40
45849;DHT22;31567;54.600;9.842;2023-04-29T09:41:22;14.90;87.90
45849;DHT22;31567;54.600;9.842;2023-04-29T09:45:02;15.00;86.40
45849;DHT22;31567;54.600;9.842;2023-04-29T09:48:41;15.20;88.20
45849;DHT22;31567;54.600;9.842;2023-04-29T09:52:21;15.30;87.00
45849;DHT22;31567;54.600;9.842;2023-04-29T09:56:01;15.40;84.50
45849;DHT22;31567;54.600;9.842;2023-04-29T09:59:41;15.50;83.80
45849;DHT22;31567;54.600;9.842;2023-04-29T10:03:21;15.60;84.40
45849;DHT22;31567;54.600;9.842;2023-04-29T10:07:01;15.70;81.70
45849;DHT22;31567;54.600;9.842;2023-04-29T10:10:41;15.70;82.20
45849;DHT22;31567;54.600;9.842;2023-04-29T10:14:22;15.60;80.10
45849;DHT22;31567;54.600;9.842;2023-04-29T10:18:16;15.60;78.80
45849;DHT22;31567;54.600;9.842;2023-04-29T10:21:59;15.70;81.10
45849;DHT22;31567;54.600;9.842;2023-04-29T10:25:43;15.70;81.10
45849;DHT22;31567;54.600;9.842;2023-04-29T10:29:26;15.80;83.10
45849;DHT22;31567;54.600;9.842;2023-04-29T10:33:10;15.70;83.40
45849;DHT22;31567;54.600;9.842;2023-04-29T10:36:50;15.60;83.60
45849;DHT22;31567;54.600;9.842;2023-04-29T10:40:44;15.50;81.60
45849;DHT22;31567;54.600;9.842;2023-04-29T10:44:27;15.70;81.30
45849;DHT22;31567;54.600;9.842;2023-04-29T10:48:11;15.90;79.80
45849;DHT22;31567;54.600;9.842;2023-04-29T10:51:51;15.70;77.10
45849;DHT22;31567;54.600;9.842;2023-04-29T10:55:35;15.90;77.10
45849;DHT22;31567;54.600;9.842;2023-04-29T10:59:19;16.10;76.40
45849;DHT22;31567;54.600;9.842;2023-04-29T11:03:05;16.10;76.80
45849;DHT22;31567;54.600;9.842;2023-04-29T11:06:55;16.20;74.70
45849;DHT22;31567;54.600;9.842;2023-04-29T11:10:36;15.80;73.50
45849;DHT22;31567;54.600;9.842;2023-04-29T11:14:22;15.80;75.60
45849;DHT22;31567;54.600;9.842;2023-04-29T11:18:02;15.80;76.30
45849;DHT22;31567;54.600;9.842;2023-04-29T11:21:44;15.90;76.10
45849;DHT22;31567;54.600;9.842;2023-04-29T11:25:25;16.10;76.70
45849;DHT22;31567;54.600;9.842;2023-04-29T11:29:04;16.30;77.30
45849;DHT22;31567;54.600;9.842;2023-04-29T11:32:47;16.30;75.70
45849;DHT22;31567;54.600;9.842;2023-04-29T11:36:31;16.20;74.60
45849;DHT22;31567;54.600;9.842;2023-04-29T11:40:12;16.20;75.80
45849;DHT22;31567;54.600;9.842;2023-04-29T11:43:55;16.30;77.20
45849;DHT22;31567;54.600;9.842;2023-04-29T11:47:35;16.40;76.80
45849;DHT22;31567;54.600;9.842;2023-04-29T11:51:16;16.20;76.60
45849;DHT22;31567;54.600;9.842;2023-04-29T11:54:57;16.10;76.70
45849;DHT22;31567;54.600;9.842;2023-04-29T11:58:38;16.00;77.10
45849;DHT22;31567;54.600;9.842;2023-04-29T12:02:21;15.80;77.90
45849;DHT22;31567;54.600;9.842;2023-04-29T12:06:01;15.80;79.20
45849;DHT22;31567;54.600;9.842;2023-04-29T12:09:43;15.60;78.60
45849;DHT22;31567;54.600;9.842;2023-04-29T12:13:33;15.40;80.70
45849;DHT22;31567;54.600;9.842;2023-04-29T12:17:15;15.10;78.70
45849;DHT22;31567;54.600;9.842;2023-04-29T12:20:56;15.00;80.10
45849;DHT22;31567;54.600;9.842;2023-04-29T12:24:36;14.90;82.40
45849;DHT22;31567;54.600;9.842;2023-04-29T12:28:17;14.80;84.50
45849;DHT22;31567;54.600;9.842;2023-04-29T12:31:56;14.70;85.30
45849;DHT22;31567;54.600;9.842;2023-04-29T12:35:36;15.20;86.20
45849;DHT22;31567;54.600;9.842;2023-04-29T12:39:15;15.50;80.50
45849;DHT22;31567;54.600;9.842;2023-04-29T12:42:55;15.50;79.40
45849;DHT22;31567;54.600;9.842;2023-04-29T12:46:39;15.70;82.30
45849;DHT22;31567;54.600;9.842;2023-04-29T12:50:19;15.40;82.30
45849;DHT22;31567;54.600;9.842;2023-04-29T12:54:00;15.40;82.60
45849;DHT22;31567;54.600;9.842;2023-04-29T12:57:40;15.10;82.80
45849;DHT22;31567;54.600;9.842;2023-04-29T13:01:20;14.90;85.20
45849;DHT22;31567;54.600;9.842;2023-04-29T13:04:59;14.90;86.40
45849;DHT22;31567;54.600;9.842;2023-04-29T13:08:39;15.10;81.30
45849;DHT22;31567;54.600;9.842;2023-04-29T13:12:20;15.40;84.00
45849;DHT22;31567;54.600;9.842;2023-04-29T13:16:00;15.40;84.80
45849;DHT22;31567;54.600;9.842;2023-04-29T13:19:39;15.10;82.70
45849;DHT22;31567;54.600;9.842;2023-04-29T13:23:19;14.90;84.10
45849;DHT22;31567;54.600;9.842;2023-04-29T13:26:59;15.20;84.20
45849;DHT22;31567;54.600;9.842;2023-04-29T13:30:41;15.20;81.20
45849;DHT22;31567;54.600;9.842;2023-04-29T13:34:20;15.30;82.40
45849;DHT22;31567;54.600;9.842;2023-04-29T13:38:00;15.40;82.50
45849;DHT22;31567;54.600;9.842;2023-04-29T13:41:40;15.50;81.20
45849;DHT22;31567;54.600;9.842;2023-04-29T13:45:19;15.30;81.40
45849;DHT22;31567;54.600;9.842;2023-04-29T13:48:59;15.40;80.60
45849;DHT22;31567;54.600;9.842;2023-04-29T13:52:39;15.50;83.10
45849;DHT22;31567;54.600;9.842;2023-04-29T13:56:18;15.30;78.90
45849;DHT22;31567;54.600;9.842;2023-04-29T13:59:58;15.30;78.80
45849;DHT22;31567;54.600;9.842;2023-04-29T14:03:37;14.90;77.60
45849;DHT22;31567;54.600;9.842;2023-04-29T14:07:17;14.80;77.80
45849;DHT22;31567;54.600;9.842;2023-04-29T14:10:56;15.00;80.70
45849;DHT22;31567;54.600;9.842;2023-04-29T14:14:36;15.20;78.70
45849;DHT22;31567;54.600;9.842;2023-04-29T14:18:15;15.40;77.90
45849;DHT22;31567;54.600;9.842;2023-04-29T14:21:55;15.40;77.40
45849;DHT22;31567;54.600;9.842;2023-04-29T14:25:34;15.40;77.90
45849;DHT22;31567;54.600;9.842;2023-04-29T14:29:14;15.30;77.00
45849;DHT22;31567;54.600;9.842;2023-04-29T14:32:53;15.20;71.80
45849;DHT22;31567;54.600;9.842;2023-04-29T14:36:33;15.00;69.30
45849;DHT22;31567;54.600;9.842;2023-04-29T14:40:13;15.00;69.80
45849;DHT22;31567;54.600;9.842;2023-04-29T14:43:52;14.80;68.90
45849;DHT22;31567;54.600;9.842;2023-04-29T14:47:32;14.80;71.30
45849;DHT22;31567;54.600;9.842;2023-04-29T14:51:12;15.10;71.70
45849;DHT22;31567;54.600;9.842;2023-04-29T14:54:51;14.90;68.20
45849;DHT22;31567;54.600;9.842;2023-04-29T14:58:31;15.00;70.70
45849;DHT22;31567;54.600;9.842;2023-04-29T15:02:10;15.10;69.90
45849;DHT22;31567;54.600;9.842;2023-04-29T15:05:50;14.90;70.60
45849;DHT22;31567;54.600;9.842;2023-04-29T15:09:30;15.10;72.10
45849;DHT22;31567;54.600;9.842;2023-04-29T15:13:10;15.10;71.80
45849;DHT22;31567;54.600;9.842;2023-04-29T15:16:49;15.20;72.80
45849;DHT22;31567;54.600;9.842;2023-04-29T15:20:29;15.20;72.80
45849;DHT22;31567;54.600;9.842;2023-04-29T15:24:09;15.10;72.80
45849;DHT22;31567;54.600;9.842;2023-04-29T15:27:48;15.20;72.50
45849;DHT22;31567;54.600;9.842;2023-04-29T15:31:28;15.20;72.70
45849;DHT22;31567;54.600;9.842;2023-04-29T15:35:08;14.90;72.70
45849;DHT22;31567;54.600;9.842;2023-04-29T15:38:47;14.90;72.00
45849;DHT22;31567;54.600;9.842;2023-04-29T15:42:27;14.50;72.10
45849;DHT22;31567;54.600;9.842;2023-04-29T15:46:07;14.60;73.60
45849;DHT22;31567;54.600;9.842;2023-04-29T15:49:47;14.50;73.30
45849;DHT22;31567;54.600;9.842;2023-04-29T15:53:27;14.50;73.40
45849;DHT22;31567;54.600;9.842;2023-04-29T15:57:07;14.40;75.00
45849;DHT22;31567;54.600;9.842;2023-04-29T16:00:46;14.60;73.50
45849;DHT22;31567;54.600;9.842;2023-04-29T16:04:26;14.50;73.50
45849;DHT22;31567;54.600;9.842;2023-04-29T16:08:06;14.50;73.70
45849;DHT22;31567;54.600;9.842;2023-04-29T16:11:46;14.50;73.60
45849;DHT22;31567;54.600;9.842;2023-04-29T16:15:25;14.60;74.40
45849;DHT22;31567;54.600;9.842;2023-04-29T16:19:06;14.70;74.60
45849;DHT22;31567;54.600;9.842;2023-04-29T16:22:45;14.70;73.70
45849;DHT22;31567;54.600;9.842;2023-04-29T16:26:25;14.60;73.10
45849;DHT22;31567;54.600;9.842;2023-04-29T16:30:05;14.40;72.40
45849;DHT22;31567;54.600;9.842;2023-04-29T16:33:45;14.30;72.80
45849;DHT22;31567;54.600;9.842;2023-04-29T16:37:24;14.30;72.80
45849;DHT22;31567;54.600;9.842;2023-04-29T16:41:04;14.20;72.30
45849;DHT22;31567;54.600;9.842;2023-04-29T16:44:45;14.40;71.90
45849;DHT22;31567;54.600;9.842;2023-04-29T16:48:25;14.40;72.60
45849;DHT22;31567;54.600;9.842;2023-04-29T16:52:05;14.40;72.40
45849;DHT22;31567;54.600;9.842;2023-04-29T16:55:45;14.40;72.40
45849;DHT22;31567;54.600;9.842;2023-04-29T16:59:24;14.70;73.40
45849;DHT22;31567;54.600;9.842;2023-04-29T17:03:04;14.90;73.10
45849;DHT22;31567;54.600;9.842;2023-04-29T17:06:44;14.70;72.70
45849;DHT22;31567;54.600;9.842;2023-04-29T17:10:23;14.70;73.00
45849;DHT22;31567;54.600;9.842;2023-04-29T17:14:03;14.70;73.20
45849;DHT22;31567;54.600;9.842;2023-04-29T17:17:43;14.60;73.10
45849;DHT22;31567;54.600;9.842;2023-04-29T17:21:22;14.30;73.00
45849;DHT22;31567;54.600;9.842;2023-04-29T17:25:04;14.40;71.90
45849;DHT22;31567;54.600;9.842;2023-04-29T17:28:44;14.50;72.20
45849;DHT22;31567;54.600;9.842;2023-04-29T17:32:23;14.50;71.20
45849;DHT22;31567;54.600;9.842;2023-04-29T17:36:06;14.70;70.70
45849;DHT22;31567;54.600;9.842;2023-04-29T17:39:46;14.80;70.90
45849;DHT22;31567;54.600;9.842;2023-04-29T17:43:26;14.90;69.60
45849;DHT22;31567;54.600;9.842;2023-04-29T17:47:05;14.60;67.10
45849;DHT22;31567;54.600;9.842;2023-04-29T17:50:47;14.20;66.50
45849;DHT22;31567;54.600;9.842;2023-04-29T17:54:27;14.40;66.30
45849;DHT22;31567;54.600;9.842;2023-04-29T17:58:07;14.00;65.00
45849;DHT22;31567;54.600;9.842;2023-04-29T18:01:47;13.90;66.80
45849;DHT22;31567;54.600;9.842;2023-04-29T18:05:26;13.70;66.20
45849;DHT22;31567;54.600;9.842;2023-04-29T18:09:06;13.40;66.50
45849;DHT22;31567;54.600;9.842;2023-04-29T18:12:46;13.30;67.30
45849;DHT22;31567;54.600;9.842;2023-04-29T18:16:25;13.20;67.70
45849;DHT22;31567;54.600;9.842;2023-04-29T18:20:06;13.20;68.70
45849;DHT22;31567;54.600;9.842;2023-04-29T18:23:46;13.10;69.80
45849;DHT22;31567;54.600;9.842;2023-04-29T18:27:26;12.90;70.20
45849;DHT22;31567;54.600;9.842;2023-04-29T18:31:05;12.90;70.60
45849;DHT22;31567;54.600;9.842;2023-04-29T18:34:45;12.70;71.30
45849;DHT22;31567;54.600;9.842;2023-04-29T18:38:25;12.50;71.30
45849;DHT22;31567;54.600;9.842;2023-04-29T18:42:04;12.30;71.90
45849;DHT22;31567;54.600;9.842;2023-04-29T18:45:44;11.90;73.00
45849;DHT22;31567;54.600;9.842;2023-04-29T18:49:24;11.80;74.10
45849;DHT22;31567;54.600;9.842;2023-04-29T18:53:03;11.40;75.60
45849;DHT22;31567;54.600;9.842;2023-04-29T18:56:44;11.10;77.30
45849;DHT22;31567;54.600;9.842;2023-04-29T19:00:25;11.00;78.20
45849;DHT22;31567;54.600;9.842;2023-04-29T19:04:05;10.80;79.60
45849;DHT22;31567;54.600;9.842;2023-04-29T19:07:44;10.70;80.20
45849;DHT22;31567;54.600;9.842;2023-04-29T19:11:24;10.40;81.30
45849;DHT22;31567;54.600;9.842;2023-04-29T19:15:05;10.30;82.20
45849;DHT22;31567;54.600;9.842;2023-04-29T19:18:46;10.20;82.80
45849;DHT22;31567;54.600;9.842;2023-04-29T19:22:26;10.10;83.50
45849;DHT22;31567;54.600;9.842;2023-04-29T19:26:07;10.00;83.90
45849;DHT22;31567;54.600;9.842;2023-04-29T19:29:46;10.00;84.50
45849;DHT22;31567;54.600;9.842;2023-04-29T19:33:26;9.80;85.10
45849;DHT22;31567;54.600;9.842;2023-04-29T19:37:06;9.70;85.80
45849;DHT22;31567;54.600;9.842;2023-04-29T19:40:45;9.60;86.40
45849;DHT22;31567;54.600;9.842;2023-04-29T19:44:25;9.50;87.10
45849;DHT22;31567;54.600;9.842;2023-04-29T19:48:04;9.40;87.60
45849;DHT22;31567;54.600;9.842;2023-04-29T19:51:44;9.40;88.90
45849;DHT22;31567;54.600;9.842;2023-04-29T19:55:24;9.30;88.80
45849;DHT22;31567;54.600;9.842;2023-04-29T19:59:04;9.20;89.10
45849;DHT22;31567;54.600;9.842;2023-04-29T20:02:43;9.10;89.60
45849;DHT22;31567;54.600;9.842;2023-04-29T20:06:23;9.10;89.90
45849;DHT22;31567;54.600;9.842;2023-04-29T20:10:03;8.90;90.00
45849;DHT22;31567;54.600;9.842;2023-04-29T20:13:46;8.80;90.20
45849;DHT22;31567;54.600;9.842;2023-04-29T20:17:26;8.70;90.40
45849;DHT22;31567;54.600;9.842;2023-04-29T20:21:07;8.70;90.40
45849;DHT22;31567;54.600;9.842;2023-04-29T20:24:46;8.70;90.40
45849;DHT22;31567;54.600;9.842;2023-04-29T20:28:26;8.70;90.50
45849;DHT22;31567;54.600;9.842;2023-04-29T20:32:05;8.60;90.50
45849;DHT22;31567;54.600;9.842;2023-04-29T20:35:45;8.50;90.90
45849;DHT22;31567;54.600;9.842;2023-04-29T20:39:24;8.50;90.70
45849;DHT22;31567;54.600;9.842;2023-04-29T20:43:04;8.50;90.70
45849;DHT22;31567;54.600;9.842;2023-04-29T20:46:44;8.50;90.60
45849;DHT22;31567;54.600;9.842;2023-04-29T20:50:24;8.50;90.50
45849;DHT22;31567;54.600;9.842;2023-04-29T20:54:04;8.40;90.70
45849;DHT22;31567;54.600;9.842;2023-04-29T20:57:44;8.30;90.80
45849;DHT22;31567;54.600;9.842;2023-04-29T21:01:23;8.20;90.80
45849;DHT22;31567;54.600;9.842;2023-04-29T21:05:03;8.20;90.90
45849;DHT22;31567;54.600;9.842;2023-04-29T21:08:43;8.10;90.80
45849;DHT22;31567;54.600;9.842;2023-04-29T21:12:22;8.10;90.90
45849;DHT22;31567;54.600;9.842;2023-04-29T21:16:03;8.00;91.00
45849;DHT22;31567;54.600;9.842;2023-04-29T21:19:42;7.90;91.10
45849;DHT22;31567;54.600;9.842;2023-04-29T21:23:22;7.80;91.30
45849;DHT22;31567;54.600;9.842;2023-04-29T21:27:02;7.80;91.30
45849;DHT22;31567;54.600;9.842;2023-04-29T21:30:41;7.70;91.40
45849;DHT22;31567;54.600;9.842;2023-04-29T21:34:21;7.70;91.50
45849;DHT22;31567;54.600;9.842;2023-04-29T21:38:00;7.50;91.60
45849;DHT22;31567;54.600;9.842;2023-04-29T21:41:40;7.50;91.70
45849;DHT22;31567;54.600;9.842;2023-04-29T21:45:21;7.40;91.80
45849;DHT22;31567;54.600;9.842;2023-04-29T21:49:01;7.40;91.80
45849;DHT22;31567;54.600;9.842;2023-04-29T21:52:41;7.30;91.90
45849;DHT22;31567;54.600;9.842;2023-04-29T21:56:21;7.20;92.00
45849;DHT22;31567;54.600;9.842;2023-04-29T22:00:05;7.20;92.00
45849;DHT22;31567;54.600;9.842;2023-04-29T22:03:57;7.20;92.10
45849;DHT22;31567;54.600;9.842;2023-04-29T22:07:36;7.10;92.10
45849;DHT22;31567;54.600;9.842;2023-04-29T22:11:17;7.00;92.20
45849;DHT22;31567;54.600;9.842;2023-04-29T22:14:56;7.00;92.40
45849;DHT22;31567;54.600;9.842;2023-04-29T22:18:36;7.00;92.50
45849;DHT22;31567;54.600;9.842;2023-04-29T22:22:15;7.00;92.50
45849;DHT22;31567;54.600;9.842;2023-04-29T22:25:55;7.00;92.50
45849;DHT22;31567;54.600;9.842;2023-04-29T22:29:34;6.90;92.40
45849;DHT22;31567;54.600;9.842;2023-04-29T22:33:14;6.80;92.60
45849;DHT22;31567;54.600;9.842;2023-04-29T22:36:54;6.80;92.60
45849;DHT22;31567;54.600;9.842;2023-04-29T22:40:33;6.70;92.60
45849;DHT22;31567;54.600;9.842;2023-04-29T22:44:13;6.60;92.60
45849;DHT22;31567;54.600;9.842;2023-04-29T22:47:53;6.60;92.80
45849;DHT22;31567;54.600;9.842;2023-04-29T22:51:33;6.50;92.90
45849;DHT22;31567;54.600;9.842;2023-04-29T22:55:12;6.40;93.00
45849;DHT22;31567;54.600;9.842;2023-04-29T22:58:53;6.30;92.90
45849;DHT22;31567;54.600;9.842;2023-04-29T23:02:33;6.20;93.10
45849;DHT22;31567;54.600;9.842;2023-04-29T23:06:12;6.20;93.30
45849;DHT22;31567;54.600;9.842;2023-04-29T23:09:52;6.20;93.40
45849;DHT22;31567;54.600;9.842;2023-04-29T23:13:31;6.20;93.40
45849;DHT22;31567;54.600;9.842;2023-04-29T23:17:11;6.00;93.40
45849;DHT22;31567;54.600;9.842;2023-04-29T23:20:50;6.10;93.70
45849;DHT22;31567;54.600;9.842;2023-04-29T23:24:30;6.00;93.80
45849;DHT22;31567;54.600;9.842;2023-04-29T23:28:10;6.10;94.00